createdAt,value
2023-11-27T00:01:06.344Z,69.28
2023-11-27T00:03:35.908Z,69.21
2023-11-27T00:06:04.269Z,69.15
2023-11-27T00:08:32.312Z,68.92
2023-11-27T00:11:01.515Z,68.89
2023-11-27T00:13:30.644Z,69.04
2023-11-27T00:15:58.828Z,68.85
2023-11-27T00:18:26.928Z,68.80
2023-11-27T00:20:55.016Z,68.44
2023-11-27T00:23:24.691Z,68.26
2023-11-27T00:25:53.104Z,68.22
2023-11-27T00:28:21.396Z,68.27
2023-11-27T00:30:49.621Z,67.88
2023-11-27T00:33:17.931Z,68.19
2023-11-27T00:35:47.150Z,68.29
2023-11-27T00:38:15.347Z,68.02
2023-11-27T00:40:43.993Z,68.04
2023-11-27T00:43:12.333Z,67.79
2023-11-27T00:45:40.534Z,67.92
2023-11-27T00:48:09.085Z,68.06
2023-11-27T00:50:37.501Z,67.95
2023-11-27T00:53:05.612Z,68.05
2023-11-27T00:55:33.798Z,67.85
2023-11-27T00:58:01.950Z,67.64
2023-11-27T01:00:30.341Z,67.45
2023-11-27T01:02:58.875Z,67.30
2023-11-27T01:05:27.301Z,67.14
2023-11-27T01:07:55.514Z,67.29
2023-11-27T01:10:23.670Z,67.37
2023-11-27T01:12:52.285Z,67.75
2023-11-27T01:15:22.917Z,67.93
2023-11-27T01:17:51.339Z,68.66
2023-11-27T01:20:21.035Z,69.16
2023-11-27T01:22:50.197Z,68.91
2023-11-27T01:25:18.457Z,68.94
2023-11-27T01:27:46.694Z,68.64
2023-11-27T01:30:16.701Z,69.18
2023-11-27T01:32:45.294Z,69.77
2023-11-27T01:35:13.628Z,69.77
2023-11-27T01:37:42.412Z,69.79
2023-11-27T01:40:11.740Z,69.98
2023-11-27T01:42:40.007Z,70.02
2023-11-27T01:45:09.124Z,70.01
2023-11-27T01:47:37.581Z,70.15
2023-11-27T01:50:08.881Z,70.24
2023-11-27T01:52:40.183Z,70.11
2023-11-27T01:55:09.637Z,70.15
2023-11-27T01:57:38.119Z,70.55
2023-11-27T02:00:07.331Z,70.27
2023-11-27T02:02:46.976Z,70.15
2023-11-27T02:05:15.610Z,70.32
2023-11-27T02:07:44.602Z,70.27
2023-11-27T02:10:13.812Z,70.44
2023-11-27T02:12:42.117Z,70.47
2023-11-27T02:15:11.112Z,70.68
2023-11-27T02:17:39.736Z,70.68
2023-11-27T02:20:10.389Z,70.82
2023-11-27T02:22:38.841Z,71.02
2023-11-27T02:25:08.268Z,71.92
2023-11-27T02:27:36.573Z,71.88
2023-11-27T02:30:05.420Z,72.33
2023-11-27T02:32:34.041Z,72.34
2023-11-27T02:35:02.126Z,72.35
2023-11-27T02:37:30.353Z,72.26
2023-11-27T02:39:58.561Z,72.48
2023-11-27T02:42:27.195Z,72.37
2023-11-27T02:44:55.662Z,72.88
2023-11-27T02:47:23.781Z,72.78
2023-11-27T02:49:52.365Z,72.89
2023-11-27T02:52:20.641Z,73.05
2023-11-27T02:54:49.311Z,73.03
2023-11-27T02:57:19.038Z,72.52
2023-11-27T02:59:47.377Z,72.50
2023-11-27T03:02:15.627Z,72.50
2023-11-27T03:04:44.299Z,72.53
2023-11-27T03:07:12.619Z,72.45
2023-11-27T03:09:40.715Z,72.77
2023-11-27T03:12:09.360Z,72.78
2023-11-27T03:14:38.301Z,71.92
2023-11-27T03:17:06.697Z,71.81
2023-11-27T03:19:47.107Z,71.50
2023-11-27T03:22:16.764Z,71.44
2023-11-27T03:24:45.022Z,71.26
2023-11-27T03:27:14.493Z,71.17
2023-11-27T03:29:42.961Z,71.05
2023-11-27T03:32:11.386Z,71.19
2023-11-27T03:34:39.721Z,71.08
2023-11-27T03:37:08.220Z,71.12
2023-11-27T03:39:37.691Z,71.25
2023-11-27T03:42:06.390Z,71.38
2023-11-27T03:44:34.824Z,71.72
2023-11-27T03:47:04.108Z,71.57
2023-11-27T03:49:34.965Z,71.27
2023-11-27T03:52:04.972Z,71.44
2023-11-27T03:54:33.472Z,71.57
2023-11-27T03:57:01.894Z,72.10
2023-11-27T03:59:30.272Z,72.81
2023-11-27T04:01:58.662Z,72.61
2023-11-27T04:04:27.692Z,72.72
2023-11-27T04:06:55.950Z,72.75
2023-11-27T04:09:24.889Z,72.78
2023-11-27T04:11:53.978Z,72.87
2023-11-27T04:14:22.273Z,72.86
2023-11-27T04:16:50.541Z,72.44
2023-11-27T04:19:18.989Z,71.93
2023-11-27T04:21:47.076Z,71.94
2023-11-27T04:24:16.716Z,72.40
2023-11-27T04:26:45.520Z,72.54
2023-11-27T04:29:13.843Z,72.00
2023-11-27T04:31:42.223Z,72.21
2023-11-27T04:34:11.179Z,71.46
2023-11-27T04:36:39.313Z,70.86
2023-11-27T04:39:12.258Z,69.84
2023-11-27T04:41:43.734Z,70.51
2023-11-27T04:44:12.014Z,70.11
2023-11-27T04:46:40.364Z,70.42
2023-11-27T04:49:11.334Z,69.80
2023-11-27T04:51:39.628Z,70.27
2023-11-27T04:54:08.517Z,69.11
2023-11-27T04:56:36.593Z,69.36
2023-11-27T04:59:04.829Z,69.67
2023-11-27T05:01:33.933Z,69.51
2023-11-27T05:04:02.181Z,69.53
2023-11-27T05:06:30.668Z,69.15
2023-11-27T05:08:59.266Z,69.49
2023-11-27T05:11:27.477Z,69.69
2023-11-27T05:13:55.677Z,69.84
2023-11-27T05:16:23.940Z,69.52
2023-11-27T05:18:52.134Z,69.66
2023-11-27T05:21:20.348Z,69.47
2023-11-27T05:23:48.521Z,69.50
2023-11-27T05:26:17.620Z,69.71
2023-11-27T05:28:46.192Z,69.80
2023-11-27T05:31:16.397Z,69.87
2023-11-27T05:33:44.910Z,69.81
2023-11-27T05:36:13.730Z,70.05
2023-11-27T05:38:41.863Z,70.07
2023-11-27T05:41:13.872Z,69.95
2023-11-27T05:43:42.336Z,69.80
2023-11-27T05:46:11.664Z,69.61
2023-11-27T05:48:40.331Z,69.91
2023-11-27T05:51:08.601Z,69.97
2023-11-27T05:53:36.729Z,70.10
2023-11-27T05:56:05.002Z,70.31
2023-11-27T05:58:33.101Z,70.38
2023-11-27T06:01:01.742Z,70.45
2023-11-27T06:03:30.234Z,70.51
2023-11-27T06:05:58.867Z,70.52
2023-11-27T06:08:27.140Z,70.42
2023-11-27T06:10:55.246Z,70.46
2023-11-27T06:13:23.468Z,70.41
2023-11-27T06:15:51.823Z,70.60
2023-11-27T06:18:20.110Z,70.69
2023-11-27T06:20:49.620Z,70.60
2023-11-27T06:23:17.928Z,70.60
2023-11-27T06:25:45.919Z,70.48
2023-11-27T06:28:14.742Z,70.78
2023-11-27T06:30:43.282Z,70.70
2023-11-27T06:33:11.509Z,70.75
2023-11-27T06:35:39.686Z,70.83
2023-11-27T06:38:07.950Z,70.58
2023-11-27T06:40:45.325Z,70.75
2023-11-27T06:43:17.322Z,70.41
2023-11-27T06:45:45.762Z,70.28
2023-11-27T06:48:14.334Z,70.40
2023-11-27T06:50:43.175Z,70.08
2023-11-27T06:53:11.531Z,70.08
2023-11-27T06:55:39.983Z,69.39
2023-11-27T06:58:09.172Z,67.46
2023-11-27T07:00:38.304Z,66.20
2023-11-27T07:03:07.193Z,64.68
2023-11-27T07:05:35.867Z,63.97
2023-11-27T07:08:04.841Z,63.46
2023-11-27T07:10:34.042Z,63.54
2023-11-27T07:13:02.540Z,63.45
2023-11-27T07:15:30.813Z,63.70
2023-11-27T07:18:13.688Z,62.66
2023-11-27T07:20:46.827Z,62.92
2023-11-27T07:23:16.527Z,63.53
2023-11-27T07:25:45.104Z,63.58
2023-11-27T07:28:13.409Z,62.98
2023-11-27T07:30:41.746Z,63.27
2023-11-27T07:33:10.573Z,63.45
2023-11-27T07:35:40.489Z,63.76
2023-11-27T07:38:08.828Z,63.94
2023-11-27T07:40:37.091Z,63.84
2023-11-27T07:43:12.358Z,64.11
2023-11-27T07:45:41.320Z,64.38
2023-11-27T07:48:09.835Z,64.64
2023-11-27T07:50:38.106Z,64.85
2023-11-27T07:53:06.388Z,65.35
2023-11-27T07:55:34.528Z,65.53
2023-11-27T07:58:03.985Z,65.67
2023-11-27T08:00:32.995Z,65.87
2023-11-27T08:03:01.162Z,66.23
2023-11-27T08:05:30.794Z,66.64
2023-11-27T08:07:59.829Z,67.54
2023-11-27T08:10:30.149Z,68.90
2023-11-27T08:12:58.663Z,70.01
2023-11-27T08:15:26.887Z,70.88
2023-11-27T08:17:56.713Z,71.03
2023-11-27T08:20:29.652Z,70.97
2023-11-27T08:22:59.400Z,70.74
2023-11-27T08:25:28.701Z,70.28
2023-11-27T08:27:58.653Z,69.52
2023-11-27T08:30:29.485Z,68.83
2023-11-27T08:32:59.565Z,69.40
2023-11-27T08:35:28.377Z,69.18
2023-11-27T08:37:57.078Z,68.80
2023-11-27T08:40:25.689Z,69.05
2023-11-27T08:42:53.978Z,69.91
2023-11-27T08:45:22.217Z,70.73
2023-11-27T08:47:53.967Z,71.40
2023-11-27T08:50:26.879Z,71.66
2023-11-27T08:52:59.830Z,72.09
2023-11-27T08:55:31.846Z,72.19
2023-11-27T08:58:04.905Z,72.37
2023-11-27T09:00:34.043Z,73.15
2023-11-27T09:03:03.487Z,73.40
2023-11-27T09:05:32.901Z,74.34
2023-11-27T09:08:07.688Z,74.25
2023-11-27T09:10:38.404Z,73.67
2023-11-27T09:13:08.044Z,73.62
2023-11-27T09:15:37.149Z,72.44
2023-11-27T09:18:05.511Z,71.42
2023-11-27T09:20:34.474Z,71.52
2023-11-27T09:23:02.734Z,71.33
2023-11-27T09:25:31.306Z,70.59
2023-11-27T09:27:59.997Z,69.62
2023-11-27T09:30:28.182Z,69.32
2023-11-27T09:32:56.618Z,69.42
2023-11-27T09:35:25.147Z,68.77
2023-11-27T09:37:53.559Z,67.77
2023-11-27T09:40:23.155Z,68.10
2023-11-27T09:42:52.324Z,68.22
2023-11-27T09:45:21.580Z,68.51
2023-11-27T09:47:51.987Z,68.93
2023-11-27T09:50:23.238Z,68.92
2023-11-27T09:52:57.020Z,69.68
2023-11-27T09:55:27.668Z,69.53
2023-11-27T09:57:56.085Z,69.41
2023-11-27T10:00:25.466Z,69.69
2023-11-27T10:02:53.951Z,70.21
2023-11-27T10:05:23.500Z,69.96
2023-11-27T10:07:52.886Z,69.84
2023-11-27T10:10:27.958Z,70.36
2023-11-27T10:13:09.641Z,70.51
2023-11-27T10:15:50.519Z,70.45
2023-11-27T10:18:20.027Z,71.23
2023-11-27T10:20:51.889Z,71.63
2023-11-27T10:23:22.254Z,71.48
2023-11-27T10:25:59.110Z,71.91
2023-11-27T10:28:42.906Z,71.74
2023-11-27T10:31:11.513Z,72.01
2023-11-27T10:33:41.798Z,72.12
2023-11-27T10:36:11.313Z,72.09
2023-11-27T10:38:40.137Z,72.50
2023-11-27T10:41:08.910Z,72.40
2023-11-27T10:43:39.300Z,72.77
2023-11-27T10:46:09.700Z,73.30
2023-11-27T10:48:44.501Z,73.76
2023-11-27T10:51:16.779Z,73.62
2023-11-27T10:53:49.212Z,73.79
2023-11-27T10:56:20.535Z,74.17
2023-11-27T10:58:51.858Z,74.69
2023-11-27T11:01:26.301Z,75.23
2023-11-27T11:04:02.308Z,75.55
2023-11-27T11:06:31.383Z,75.66
2023-11-27T11:09:02.376Z,75.73
2023-11-27T11:11:31.924Z,75.68
2023-11-27T11:14:00.896Z,76.17
2023-11-27T11:16:37.605Z,76.35
2023-11-27T11:19:13.838Z,76.68
2023-11-27T11:22:15.549Z,76.47
2023-11-27T11:25:05.343Z,76.73
2023-11-27T11:27:40.576Z,77.12
2023-11-27T11:30:14.349Z,76.50
2023-11-27T11:32:42.684Z,76.64
2023-11-27T11:35:12.700Z,76.98
2023-11-27T11:37:51.396Z,76.49
2023-11-27T11:40:20.196Z,76.91
2023-11-27T11:42:51.874Z,77.39
2023-11-27T11:45:20.673Z,76.52
2023-11-27T11:48:02.773Z,75.93
2023-11-27T11:50:42.305Z,76.07
2023-11-27T11:53:19.755Z,75.61
2023-11-27T11:55:49.785Z,73.92
2023-11-27T11:58:21.085Z,74.09
2023-11-27T12:01:02.479Z,73.88
2023-11-27T12:03:33.712Z,74.08
2023-11-27T12:06:09.971Z,74.07
2023-11-27T12:08:39.304Z,74.11
2023-11-27T12:11:08.764Z,74.06
2023-11-27T12:13:37.778Z,73.80
2023-11-27T12:16:14.569Z,73.55
2023-11-27T12:18:45.931Z,73.72
2023-11-27T12:21:25.489Z,73.77
2023-11-27T12:23:54.877Z,73.59
2023-11-27T12:26:26.619Z,73.59
2023-11-27T12:28:56.079Z,73.47
2023-11-27T12:31:29.548Z,73.57
2023-11-27T12:34:04.593Z,73.86
2023-11-27T12:36:33.105Z,72.95
2023-11-27T12:39:02.323Z,72.44
2023-11-27T12:41:35.680Z,72.57
2023-11-27T12:44:17.713Z,73.03
2023-11-27T12:46:57.232Z,71.62
2023-11-27T12:49:29.568Z,71.13
2023-11-27T12:52:08.086Z,71.14
2023-11-27T12:54:37.686Z,71.21
2023-11-27T12:57:07.647Z,70.93
2023-11-27T12:59:41.418Z,70.97
2023-11-27T13:02:09.997Z,70.05
2023-11-27T13:04:39.663Z,70.55
2023-11-27T13:07:14.081Z,70.79
2023-11-27T13:09:43.850Z,70.74
2023-11-27T13:12:20.034Z,69.87
2023-11-27T13:14:52.794Z,69.86
2023-11-27T13:17:22.309Z,70.27
2023-11-27T13:19:57.383Z,70.25
2023-11-27T13:22:34.034Z,70.64
2023-11-27T13:25:07.553Z,70.91
2023-11-27T13:27:46.668Z,70.52
2023-11-27T13:30:28.479Z,70.11
2023-11-27T13:33:01.285Z,70.09
2023-11-27T13:35:36.211Z,70.46
2023-11-27T13:38:07.982Z,69.85
2023-11-27T13:40:37.061Z,69.53
2023-11-27T13:43:10.828Z,69.86
2023-11-27T13:45:39.072Z,70.13
2023-11-27T13:48:15.166Z,69.92
2023-11-27T13:50:45.055Z,70.29
2023-11-27T13:53:25.688Z,69.95
2023-11-27T13:55:57.510Z,70.66
2023-11-27T13:58:28.885Z,70.79
2023-11-27T14:01:02.360Z,70.68
2023-11-27T14:03:33.714Z,70.86
2023-11-27T14:06:16.707Z,71.12
2023-11-27T14:08:53.253Z,71.23
2023-11-27T14:11:34.048Z,71.27
2023-11-27T14:14:11.133Z,71.21
2023-11-27T14:16:46.063Z,71.35
2023-11-27T14:19:33.802Z,71.04
2023-11-27T14:22:20.664Z,71.28
2023-11-27T14:24:54.610Z,71.74
2023-11-27T14:27:46.882Z,71.77
2023-11-27T14:30:15.933Z,72.08
2023-11-27T14:32:44.092Z,72.44
2023-11-27T14:35:16.472Z,73.25
2023-11-27T14:37:45.073Z,73.46
2023-11-27T14:40:22.284Z,74.00
2023-11-27T14:42:52.041Z,74.42
2023-11-27T14:45:20.471Z,75.02
2023-11-27T14:47:48.882Z,74.99
2023-11-27T14:50:21.989Z,75.37
2023-11-27T14:52:51.370Z,75.91
2023-11-27T14:55:21.356Z,76.35
2023-11-27T14:57:49.871Z,76.62
2023-11-27T15:00:29.246Z,77.93
2023-11-27T15:02:58.899Z,77.12
2023-11-27T15:05:30.602Z,76.95
2023-11-27T15:07:59.907Z,78.31
2023-11-27T15:10:28.710Z,78.20
2023-11-27T15:12:57.106Z,78.83
2023-11-27T15:15:27.813Z,79.01
2023-11-27T15:17:56.260Z,79.33
2023-11-27T15:20:28.268Z,79.21
2023-11-27T15:22:58.355Z,79.71
2023-11-27T15:25:26.660Z,79.73
2023-11-27T15:27:55.142Z,79.78
2023-11-27T15:30:25.727Z,79.78
2023-11-27T15:32:54.240Z,79.76
2023-11-27T15:35:26.074Z,79.41
2023-11-27T15:37:54.775Z,79.33
2023-11-27T15:40:29.695Z,79.03
2023-11-27T15:42:58.661Z,78.76
2023-11-27T15:45:28.494Z,78.78
2023-11-27T15:47:58.041Z,78.53
2023-11-27T15:50:33.835Z,78.68
2023-11-27T15:53:02.531Z,78.81
2023-11-27T15:55:31.070Z,78.47
2023-11-27T15:58:00.699Z,78.41
2023-11-27T16:00:31.526Z,78.90
2023-11-27T16:03:00.142Z,78.94
2023-11-27T16:05:29.902Z,78.95
2023-11-27T16:08:01.244Z,78.79
2023-11-27T16:10:31.072Z,79.25
2023-11-27T16:12:59.691Z,79.46
2023-11-27T16:15:28.068Z,79.51
2023-11-27T16:18:00.793Z,79.40
2023-11-27T16:20:31.578Z,79.71
2023-11-27T16:23:00.650Z,79.89
2023-11-27T16:25:29.719Z,80.44
2023-11-27T16:27:58.138Z,81.22
2023-11-27T16:30:27.439Z,81.39
2023-11-27T16:32:57.223Z,81.27
2023-11-27T16:35:25.405Z,81.43
2023-11-27T16:37:53.554Z,81.32
2023-11-27T16:40:22.198Z,81.47
2023-11-27T16:42:53.903Z,81.58
2023-11-27T16:45:25.672Z,81.31
2023-11-27T16:47:58.711Z,81.44
2023-11-27T16:50:28.799Z,81.32
2023-11-27T16:52:57.936Z,81.39
2023-11-27T16:55:29.763Z,81.76
2023-11-27T16:58:07.021Z,81.94
2023-11-27T17:00:38.318Z,81.87
2023-11-27T17:03:08.674Z,81.58
2023-11-27T17:05:39.208Z,81.90
2023-11-27T17:08:20.338Z,81.74
2023-11-27T17:10:51.821Z,81.63
2023-11-27T17:13:20.450Z,81.65
2023-11-27T17:15:49.494Z,82.72
2023-11-27T17:18:17.740Z,83.03
2023-11-27T17:20:48.813Z,82.92
2023-11-27T17:23:18.342Z,82.92
2023-11-27T17:25:48.000Z,82.76
2023-11-27T17:28:16.492Z,82.90
2023-11-27T17:30:45.432Z,82.82
2023-11-27T17:33:15.710Z,82.97
2023-11-27T17:35:44.415Z,83.17
2023-11-27T17:38:13.228Z,82.74
2023-11-27T17:40:42.510Z,83.12
2023-11-27T17:43:14.093Z,82.85
2023-11-27T17:45:43.529Z,82.72
2023-11-27T17:48:12.096Z,82.60
2023-11-27T17:50:40.293Z,82.51
2023-11-27T17:53:08.700Z,82.51
2023-11-27T17:55:45.539Z,82.14
2023-11-27T17:58:19.817Z,82.53
2023-11-27T18:00:50.916Z,82.45
2023-11-27T18:03:19.096Z,81.82
2023-11-27T18:05:47.366Z,81.69
2023-11-27T18:08:16.033Z,81.04
2023-11-27T18:10:45.916Z,81.39
2023-11-27T18:13:14.367Z,81.47
2023-11-27T18:15:42.526Z,81.39
2023-11-27T18:18:10.878Z,81.43
2023-11-27T18:20:39.058Z,81.45
2023-11-27T18:23:10.886Z,81.37
2023-11-27T18:25:39.827Z,81.33
2023-11-27T18:28:08.329Z,81.59
2023-11-27T18:30:36.881Z,81.75
2023-11-27T18:33:05.261Z,81.95
2023-11-27T18:35:35.440Z,82.43
2023-11-27T18:38:03.837Z,82.27
2023-11-27T18:40:32.132Z,82.46
2023-11-27T18:43:02.247Z,82.53
2023-11-27T18:45:30.444Z,82.64
2023-11-27T18:48:01.848Z,82.86
2023-11-27T18:50:30.983Z,82.96
2023-11-27T18:53:01.013Z,82.80
2023-11-27T18:55:29.897Z,82.56
2023-11-27T18:58:01.044Z,82.51
2023-11-27T19:00:29.190Z,83.05
2023-11-27T19:02:57.484Z,83.04
2023-11-27T19:05:26.223Z,83.00
2023-11-27T19:07:54.482Z,83.15
2023-11-27T19:10:25.137Z,83.08
2023-11-27T19:12:54.074Z,83.14
2023-11-27T19:15:24.664Z,83.41
2023-11-27T19:17:53.014Z,83.31
2023-11-27T19:20:24.281Z,83.28
2023-11-27T19:22:52.417Z,83.08
2023-11-27T19:25:20.836Z,82.92
2023-11-27T19:27:49.425Z,82.52
2023-11-27T19:30:18.553Z,82.59
2023-11-27T19:32:49.380Z,82.62
2023-11-27T19:35:19.290Z,82.60
2023-11-27T19:37:47.500Z,81.58
2023-11-27T19:40:16.028Z,81.82
2023-11-27T19:42:44.238Z,81.82
2023-11-27T19:45:14.569Z,81.91
2023-11-27T19:47:42.876Z,82.00
2023-11-27T19:50:11.314Z,82.04
2023-11-27T19:52:40.065Z,82.07
2023-11-27T19:55:08.828Z,82.14
2023-11-27T19:57:36.990Z,82.03
2023-11-27T20:00:11.784Z,82.16
2023-11-27T20:02:42.712Z,82.48
2023-11-27T20:05:11.708Z,82.46
2023-11-27T20:07:40.484Z,82.71
2023-11-27T20:10:10.999Z,83.21
2023-11-27T20:12:39.255Z,83.13
2023-11-27T20:15:11.755Z,83.19
2023-11-27T20:17:41.661Z,83.25
2023-11-27T20:20:20.077Z,83.38
2023-11-27T20:22:49.110Z,83.25
2023-11-27T20:25:17.482Z,83.53
2023-11-27T20:27:48.849Z,83.35
2023-11-27T20:30:17.573Z,83.35
2023-11-27T20:32:46.371Z,83.31
2023-11-27T20:35:14.669Z,83.37
2023-11-27T20:37:42.786Z,83.18
2023-11-27T20:40:12.025Z,83.59
2023-11-27T20:42:40.958Z,83.43
2023-11-27T20:45:10.387Z,82.86
2023-11-27T20:47:38.785Z,83.38
2023-11-27T20:50:07.500Z,82.70
2023-11-27T20:52:35.706Z,82.56
2023-11-27T20:55:08.021Z,83.18
2023-11-27T20:57:38.289Z,82.94
2023-11-27T21:00:11.921Z,83.00
2023-11-27T21:02:40.821Z,83.16
2023-11-27T21:05:11.389Z,82.56
2023-11-27T21:07:39.582Z,82.84
2023-11-27T21:10:12.737Z,82.65
2023-11-27T21:12:43.263Z,82.72
2023-11-27T21:15:12.322Z,82.99
2023-11-27T21:17:40.893Z,83.71
2023-11-27T21:20:13.798Z,83.56
2023-11-27T21:22:43.845Z,83.78
2023-11-27T21:25:18.731Z,83.65
2023-11-27T21:27:51.712Z,83.55
2023-11-27T21:30:20.614Z,83.74
2023-11-27T21:32:50.586Z,83.67
2023-11-27T21:35:19.406Z,83.56
2023-11-27T21:37:48.452Z,83.74
2023-11-27T21:40:20.609Z,83.85
2023-11-27T21:42:48.731Z,84.75
2023-11-27T21:45:16.981Z,84.27
2023-11-27T21:47:45.226Z,84.47
2023-11-27T21:50:13.510Z,84.59
2023-11-27T21:52:41.806Z,84.50
2023-11-27T21:55:10.513Z,84.72
2023-11-27T21:57:39.846Z,84.47
2023-11-27T22:00:11.422Z,84.83
2023-11-27T22:02:42.715Z,85.05
2023-11-27T22:05:11.242Z,84.77
2023-11-27T22:07:40.436Z,84.73
2023-11-27T22:10:11.034Z,85.00
2023-11-27T22:12:40.338Z,85.11
2023-11-27T22:15:09.371Z,85.03
2023-11-27T22:17:37.525Z,84.96
2023-11-27T22:20:06.464Z,84.98
2023-11-27T22:22:36.090Z,85.25
2023-11-27T22:25:05.047Z,84.89
2023-11-27T22:27:33.612Z,84.66
2023-11-27T22:30:01.858Z,84.62
2023-11-27T22:32:30.743Z,84.60
2023-11-27T22:34:59.069Z,84.33
2023-11-27T22:37:27.440Z,84.16
2023-11-27T22:39:56.020Z,84.45
2023-11-27T22:42:24.335Z,83.85
2023-11-27T22:44:52.683Z,83.98
2023-11-27T22:47:21.012Z,83.77
2023-11-27T22:49:49.257Z,83.45
2023-11-27T22:52:17.529Z,83.71
2023-11-27T22:54:45.997Z,83.46
2023-11-27T22:57:14.054Z,82.96
2023-11-27T22:59:43.247Z,83.43
2023-11-27T23:02:13.055Z,83.16
2023-11-27T23:04:42.060Z,83.28
2023-11-27T23:07:10.417Z,82.85
2023-11-27T23:09:38.533Z,82.89
2023-11-27T23:12:07.299Z,82.85
2023-11-27T23:14:35.501Z,83.16
2023-11-27T23:17:04.026Z,83.33
2023-11-27T23:19:32.393Z,83.08
2023-11-27T23:22:00.881Z,83.22
2023-11-27T23:24:28.973Z,83.52
2023-11-27T23:26:57.237Z,83.45
2023-11-27T23:29:25.383Z,83.41
2023-11-27T23:31:56.927Z,83.66
2023-11-27T23:34:27.536Z,83.81
2023-11-27T23:36:55.752Z,84.23
2023-11-27T23:39:24.013Z,84.42
2023-11-27T23:41:54.530Z,85.08
2023-11-27T23:44:22.902Z,84.52
2023-11-27T23:46:52.727Z,84.55
2023-11-27T23:49:21.578Z,84.71
2023-11-27T23:51:52.219Z,84.90
2023-11-27T23:54:20.420Z,84.77
2023-11-27T23:56:48.847Z,84.69
2023-11-27T23:59:17.261Z,84.72
